sensor_id;sensor_type;location;lat;lon;timestamp;pressure;altitude;pressure_sealevel;temperature;humidity
45525;BME280;31437;58.350;13.828;2023-02-22T00:00:11;100786.00;;;-5.55;100.00
45525;BME280;31437;58.350;13.828;2023-02-22T00:02:47;100782.53;;;-5.57;100.00
45525;BME280;31437;58.350;13.828;2023-02-22T00:05:13;100786.78;;;-5.58;100.00
45525;BME280;31437;58.350;13.828;2023-02-22T00:07:40;100786.69;;;-5.62;100.00
45525;BME280;31437;58.350;13.828;2023-02-22T00:10:06;100792.53;;;-5.68;100.00
45525;BME280;31437;58.350;13.828;2023-02-22T00:12:37;100789.91;;;-5.71;100.00
45525;BME280;31437;58.350;13.828;2023-02-22T00:15:02;100788.97;;;-5.75;100.00
45525;BME280;31437;58.350;13.828;2023-02-22T00:17:29;100793.19;;;-5.77;100.00
45525;BME280;31437;58.350;13.828;2023-02-22T00:19:54;100797.44;;;-5.79;100.00
45525;BME280;31437;58.350;13.828;2023-02-22T00:22:20;100796.53;;;-5.81;100.00
45525;BME280;31437;58.350;13.828;2023-02-22T00:24:45;100804.16;;;-5.82;100.00
45525;BME280;31437;58.350;13.828;2023-02-22T00:27:10;100792.13;;;-5.86;100.00
45525;BME280;31437;58.350;13.828;2023-02-22T00:29:35;100802.34;;;-5.88;100.00
45525;BME280;31437;58.350;13.828;2023-02-22T00:32:01;100807.38;;;-5.91;100.00
45525;BME280;31437;58.350;13.828;2023-02-22T00:34:27;100814.09;;;-5.96;100.00
45525;BME280;31437;58.350;13.828;2023-02-22T00:36:53;100808.94;;;-5.98;100.00
45525;BME280;31437;58.350;13.828;2023-02-22T00:39:18;100807.22;;;-5.99;100.00
45525;BME280;31437;58.350;13.828;2023-02-22T00:41:44;100815.66;;;-6.03;100.00
45525;BME280;31437;58.350;13.828;2023-02-22T00:44:09;100810.50;;;-6.06;100.00
45525;BME280;31437;58.350;13.828;2023-02-22T00:46:36;100807.94;;;-6.06;100.00
45525;BME280;31437;58.350;13.828;2023-02-22T00:49:05;100821.50;;;-6.07;100.00
45525;BME280;31437;58.350;13.828;2023-02-22T00:51:30;100827.38;;;-6.11;100.00
45525;BME280;31437;58.350;13.828;2023-02-22T00:53:55;100826.53;;;-6.11;100.00
45525;BME280;31437;58.350;13.828;2023-02-22T00:56:20;100820.50;;;-6.13;100.00
45525;BME280;31437;58.350;13.828;2023-02-22T00:58:46;100824.63;;;-6.19;100.00
45525;BME280;31437;58.350;13.828;2023-02-22T01:01:11;100827.13;;;-6.22;100.00
45525;BME280;31437;58.350;13.828;2023-02-22T01:03:36;100823.63;;;-6.25;100.00
45525;BME280;31437;58.350;13.828;2023-02-22T01:06:05;100816.69;;;-6.31;100.00
45525;BME280;31437;58.350;13.828;2023-02-22T01:08:31;100819.94;;;-6.38;100.00
45525;BME280;31437;58.350;13.828;2023-02-22T01:10:56;100829.09;;;-6.45;100.00
45525;BME280;31437;58.350;13.828;2023-02-22T01:13:21;100829.88;;;-6.47;100.00
45525;BME280;31437;58.350;13.828;2023-02-22T01:15:47;100835.91;;;-6.45;100.00
45525;BME280;31437;58.350;13.828;2023-02-22T01:18:12;100841.88;;;-6.45;100.00
45525;BME280;31437;58.350;13.828;2023-02-22T01:20:41;100836.81;;;-6.43;100.00
45525;BME280;31437;58.350;13.828;2023-02-22T01:23:10;100846.19;;;-6.42;100.00
45525;BME280;31437;58.350;13.828;2023-02-22T01:25:37;100852.13;;;-6.43;100.00
45525;BME280;31437;58.350;13.828;2023-02-22T01:28:03;100858.16;;;-6.41;100.00
45525;BME280;31437;58.350;13.828;2023-02-22T01:30:30;100854.75;;;-6.40;100.00
45525;BME280;31437;58.350;13.828;2023-02-22T01:32:56;100856.47;;;-6.39;100.00
45525;BME280;31437;58.350;13.828;2023-02-22T01:35:24;100851.31;;;-6.42;100.00
45525;BME280;31437;58.350;13.828;2023-02-22T01:37:51;100858.88;;;-6.45;100.00
45525;BME280;31437;58.350;13.828;2023-02-22T01:40:18;100863.88;;;-6.50;100.00
45525;BME280;31437;58.350;13.828;2023-02-22T01:42:45;100860.38;;;-6.53;100.00
45525;BME280;31437;58.350;13.828;2023-02-22T01:45:54;100862.84;;;-6.56;100.00
45525;BME280;31437;58.350;13.828;2023-02-22T01:48:04;100868.66;;;-6.62;100.00
45525;BME280;31437;58.350;13.828;2023-02-22T01:50:31;100876.19;;;-6.67;100.00
45525;BME280;31437;58.350;13.828;2023-02-22T01:52:57;100878.69;;;-6.70;100.00
45525;BME280;31437;58.350;13.828;2023-02-22T01:55:22;100881.16;;;-6.73;100.00
45525;BME280;31437;58.350;13.828;2023-02-22T01:57:49;100884.56;;;-6.72;100.00
45525;BME280;31437;58.350;13.828;2023-02-22T02:00:15;100894.72;;;-6.74;100.00
45525;BME280;31437;58.350;13.828;2023-02-22T02:02:52;100894.72;;;-6.74;100.00
45525;BME280;31437;58.350;13.828;2023-02-22T02:05:24;100899.09;;;-6.70;100.00
45525;BME280;31437;58.350;13.828;2023-02-22T02:07:50;100899.91;;;-6.71;100.00
45525;BME280;31437;58.350;13.828;2023-02-22T02:10:16;100899.88;;;-6.72;100.00
45525;BME280;31437;58.350;13.828;2023-02-22T02:12:42;100900.66;;;-6.75;100.00
45525;BME280;31437;58.350;13.828;2023-02-22T02:17:46;100910.72;;;-6.79;100.00
45525;BME280;31437;58.350;13.828;2023-02-22T02:20:14;100904.75;;;-6.80;100.00
45525;BME280;31437;58.350;13.828;2023-02-22T02:30:35;100918.19;;;-6.86;100.00
45525;BME280;31437;58.350;13.828;2023-02-22T02:33:11;100924.97;;;-6.88;100.00
45525;BME280;31437;58.350;13.828;2023-02-22T02:40:46;100920.47;;;-6.96;100.00
45525;BME280;31437;58.350;13.828;2023-02-22T02:48:07;100931.47;;;-6.97;100.00
45525;BME280;31437;58.350;13.828;2023-02-22T02:50:45;100930.59;;;-6.99;100.00
45525;BME280;31437;58.350;13.828;2023-02-22T02:53:11;100927.97;;;-7.01;100.00
45525;BME280;31437;58.350;13.828;2023-02-22T02:55:37;100931.34;;;-7.02;100.00
45525;BME280;31437;58.350;13.828;2023-02-22T02:58:03;100932.06;;;-7.06;100.00
45525;BME280;31437;58.350;13.828;2023-02-22T03:00:30;100932.88;;;-7.09;100.00
45525;BME280;31437;58.350;13.828;2023-02-22T03:08:12;100944.56;;;-7.15;100.00
45525;BME280;31437;58.350;13.828;2023-02-22T03:13:34;100939.34;;;-7.20;100.00
45525;BME280;31437;58.350;13.828;2023-02-22T03:16:04;100948.69;;;-7.20;100.00
45525;BME280;31437;58.350;13.828;2023-02-22T03:24:17;100955.81;;;-7.09;100.00
45525;BME280;31437;58.350;13.828;2023-02-22T03:26:17;100953.38;;;-7.05;100.00
45525;BME280;31437;58.350;13.828;2023-02-22T03:28:44;100949.91;;;-7.06;100.00
45525;BME280;31437;58.350;13.828;2023-02-22T03:31:16;100953.41;;;-7.04;100.00
45525;BME280;31437;58.350;13.828;2023-02-22T03:33:49;100954.16;;;-7.06;100.00
45525;BME280;31437;58.350;13.828;2023-02-22T03:36:29;100961.00;;;-7.05;100.00
45525;BME280;31437;58.350;13.828;2023-02-22T03:38:57;100954.16;;;-7.06;100.00
45525;BME280;31437;58.350;13.828;2023-02-22T03:41:24;100955.00;;;-7.07;100.00
45525;BME280;31437;58.350;13.828;2023-02-22T03:43:57;100952.44;;;-7.07;100.00
45525;BME280;31437;58.350;13.828;2023-02-22T03:46:24;100962.66;;;-7.07;100.00
45525;BME280;31437;58.350;13.828;2023-02-22T03:51:18;100959.31;;;-7.05;100.00
45525;BME280;31437;58.350;13.828;2023-02-22T03:53:44;100958.59;;;-7.01;100.00
45525;BME280;31437;58.350;13.828;2023-02-22T03:56:11;100971.34;;;-7.01;100.00
45525;BME280;31437;58.350;13.828;2023-02-22T03:58:39;100968.00;;;-7.00;100.00
45525;BME280;31437;58.350;13.828;2023-02-22T04:01:08;100966.28;;;-6.99;100.00
45525;BME280;31437;58.350;13.828;2023-02-22T04:03:33;100983.28;;;-7.00;100.00
45525;BME280;31437;58.350;13.828;2023-02-22T04:05:58;100983.28;;;-7.00;100.00
45525;BME280;31437;58.350;13.828;2023-02-22T04:08:24;100981.53;;;-7.01;100.00
45525;BME280;31437;58.350;13.828;2023-02-22T04:10:49;100981.50;;;-7.02;100.00
45525;BME280;31437;58.350;13.828;2023-02-22T04:13:14;100987.38;;;-7.05;100.00
45525;BME280;31437;58.350;13.828;2023-02-22T04:15:39;100989.88;;;-7.06;100.00
45525;BME280;31437;58.350;13.828;2023-02-22T04:18:05;100991.72;;;-7.02;100.00
45525;BME280;31437;58.350;13.828;2023-02-22T04:20:30;100990.03;;;-7.02;100.00
45525;BME280;31437;58.350;13.828;2023-02-22T04:22:56;100998.59;;;-7.00;100.00
45525;BME280;31437;58.350;13.828;2023-02-22T04:25:21;101006.38;;;-6.95;100.00
45525;BME280;31437;58.350;13.828;2023-02-22T04:27:47;101018.38;;;-6.91;100.00
45525;BME280;31437;58.350;13.828;2023-02-22T04:30:12;101005.75;;;-6.88;100.00
45525;BME280;31437;58.350;13.828;2023-02-22T04:32:38;101020.31;;;-6.84;100.00
45525;BME280;31437;58.350;13.828;2023-02-22T04:35:04;101022.97;;;-6.81;100.00
45525;BME280;31437;58.350;13.828;2023-02-22T04:37:29;101031.63;;;-6.76;100.00
45525;BME280;31437;58.350;13.828;2023-02-22T04:39:55;101029.09;;;-6.74;100.00
45525;BME280;31437;58.350;13.828;2023-02-22T04:42:20;101038.53;;;-6.72;100.00
45525;BME280;31437;58.350;13.828;2023-02-22T04:44:45;101043.69;;;-6.70;100.00
45525;BME280;31437;58.350;13.828;2023-02-22T04:47:11;101008.19;;;-6.91;100.00
45525;BME280;31437;58.350;13.828;2023-02-22T04:49:36;101049.06;;;-6.61;100.00
45525;BME280;31437;58.350;13.828;2023-02-22T04:52:01;101045.78;;;-6.57;100.00
45525;BME280;31437;58.350;13.828;2023-02-22T04:54:26;101048.38;;;-6.55;100.00
45525;BME280;31437;58.350;13.828;2023-02-22T04:56:52;101044.94;;;-6.56;100.00
45525;BME280;31437;58.350;13.828;2023-02-22T04:59:17;101044.06;;;-6.56;100.00
45525;BME280;31437;58.350;13.828;2023-02-22T05:01:43;101047.47;;;-6.57;100.00
45525;BME280;31437;58.350;13.828;2023-02-22T05:04:09;101044.91;;;-6.57;100.00
45525;BME280;31437;58.350;13.828;2023-02-22T05:06:34;101045.75;;;-6.58;100.00
45525;BME280;31437;58.350;13.828;2023-02-22T05:08:59;101054.25;;;-6.58;100.00
45525;BME280;31437;58.350;13.828;2023-02-22T05:11:25;101055.06;;;-6.59;100.00
45525;BME280;31437;58.350;13.828;2023-02-22T05:13:52;101055.97;;;-6.58;100.00
45525;BME280;31437;58.350;13.828;2023-02-22T05:16:17;101058.63;;;-6.54;100.00
45525;BME280;31437;58.350;13.828;2023-02-22T05:18:43;101059.63;;;-6.49;100.00
45525;BME280;31437;58.350;13.828;2023-02-22T05:21:09;101061.59;;;-6.40;100.00
45525;BME280;31437;58.350;13.828;2023-02-22T05:23:34;101065.22;;;-6.32;100.00
45525;BME280;31437;58.350;13.828;2023-02-22T05:25:59;101067.97;;;-6.24;100.00
45525;BME280;31437;58.350;13.828;2023-02-22T05:28:25;101065.56;;;-6.20;100.00
45525;BME280;31437;58.350;13.828;2023-02-22T05:30:50;101069.91;;;-6.17;100.00
45525;BME280;31437;58.350;13.828;2023-02-22T05:33:18;101064.94;;;-6.11;100.00
45525;BME280;31437;58.350;13.828;2023-02-22T05:35:43;101072.72;;;-6.06;100.00
45525;BME280;31437;58.350;13.828;2023-02-22T05:38:09;101061.69;;;-6.05;100.00
45525;BME280;31437;58.350;13.828;2023-02-22T05:40:34;101070.25;;;-6.03;100.00
45525;BME280;31437;58.350;13.828;2023-02-22T05:43:01;101069.47;;;-6.01;100.00
45525;BME280;31437;58.350;13.828;2023-02-22T05:45:26;101066.91;;;-6.01;100.00
45525;BME280;31437;58.350;13.828;2023-02-22T05:47:52;101066.97;;;-5.99;100.00
45525;BME280;31437;58.350;13.828;2023-02-22T05:50:18;101073.09;;;-5.94;100.00
45525;BME280;31437;58.350;13.828;2023-02-22T05:52:43;101074.81;;;-5.91;100.00
45525;BME280;31437;58.350;13.828;2023-02-22T05:55:09;101076.53;;;-5.90;100.00
45525;BME280;31437;58.350;13.828;2023-02-22T05:57:35;101069.75;;;-5.90;100.00
45525;BME280;31437;58.350;13.828;2023-02-22T06:00:01;101067.19;;;-5.90;100.00
45525;BME280;31437;58.350;13.828;2023-02-22T06:02:27;101075.72;;;-5.89;100.00
45525;BME280;31437;58.350;13.828;2023-02-22T06:04:52;101074.88;;;-5.88;100.00
45525;BME280;31437;58.350;13.828;2023-02-22T06:07:17;101069.81;;;-5.87;100.00
45525;BME280;31437;58.350;13.828;2023-02-22T06:09:42;101072.47;;;-5.84;100.00
45525;BME280;31437;58.350;13.828;2023-02-22T06:12:08;101068.22;;;-5.83;100.00
45525;BME280;31437;58.350;13.828;2023-02-22T06:14:34;101067.44;;;-5.81;100.00
45525;BME280;31437;58.350;13.828;2023-02-22T06:16:59;101073.47;;;-5.79;100.00
45525;BME280;31437;58.350;13.828;2023-02-22T06:19:25;101072.69;;;-5.75;100.00
45525;BME280;31437;58.350;13.828;2023-02-22T06:21:51;101065.94;;;-5.73;100.00
45525;BME280;31437;58.350;13.828;2023-02-22T06:24:17;101063.53;;;-5.66;100.00
45525;BME280;31437;58.350;13.828;2023-02-22T06:26:42;101065.41;;;-5.59;100.00
45525;BME280;31437;58.350;13.828;2023-02-22T06:29:07;101064.75;;;-5.52;100.00
45525;BME280;31437;58.350;13.828;2023-02-22T06:31:33;101067.50;;;-5.44;100.00
45525;BME280;31437;58.350;13.828;2023-02-22T06:33:58;101072.88;;;-5.35;100.00
45525;BME280;31437;58.350;13.828;2023-02-22T06:36:24;101074.75;;;-5.27;100.00
45525;BME280;31437;58.350;13.828;2023-02-22T06:38:49;101075.81;;;-5.18;100.00
45525;BME280;31437;58.350;13.828;2023-02-22T06:41:14;101070.03;;;-5.11;100.00
45525;BME280;31437;58.350;13.828;2023-02-22T06:43:40;101074.50;;;-5.03;100.00
45525;BME280;31437;58.350;13.828;2023-02-22T06:46:08;101077.25;;;-4.93;100.00
45525;BME280;31437;58.350;13.828;2023-02-22T06:48:35;101080.88;;;-4.84;100.00
45525;BME280;31437;58.350;13.828;2023-02-22T06:51:01;101081.13;;;-4.73;100.00
45525;BME280;31437;58.350;13.828;2023-02-22T06:53:26;101079.16;;;-4.47;100.00
45525;BME280;31437;58.350;13.828;2023-02-22T06:55:52;101097.81;;;-4.10;100.00
45525;BME280;31437;58.350;13.828;2023-02-22T06:58:17;101093.09;;;-3.89;100.00
45525;BME280;31437;58.350;13.828;2023-02-22T07:00:43;101095.13;;;-3.72;100.00
45525;BME280;31437;58.350;13.828;2023-02-22T07:03:08;101091.22;;;-3.52;100.00
45525;BME280;31437;58.350;13.828;2023-02-22T07:05:34;101077.50;;;-3.55;100.00
45525;BME280;31437;58.350;13.828;2023-02-22T07:08:02;101068.81;;;-3.62;100.00
45525;BME280;31437;58.350;13.828;2023-02-22T07:10:29;101061.06;;;-3.65;100.00
45525;BME280;31437;58.350;13.828;2023-02-22T07:12:54;101056.72;;;-3.69;100.00
45525;BME280;31437;58.350;13.828;2023-02-22T07:15:20;101051.53;;;-3.72;100.00
45525;BME280;31437;58.350;13.828;2023-02-22T07:17:47;101050.69;;;-3.73;100.00
45525;BME280;31437;58.350;13.828;2023-02-22T07:20:13;101045.56;;;-3.71;100.00
45525;BME280;31437;58.350;13.828;2023-02-22T07:22:38;101037.06;;;-3.70;100.00
45525;BME280;31437;58.350;13.828;2023-02-22T07:25:04;101029.41;;;-3.67;100.00
45525;BME280;31437;58.350;13.828;2023-02-22T07:27:30;101029.50;;;-3.61;100.00
45525;BME280;31437;58.350;13.828;2023-02-22T07:29:55;101019.34;;;-3.55;100.00
45525;BME280;31437;58.350;13.828;2023-02-22T07:32:20;101020.31;;;-3.48;100.00
45525;BME280;31437;58.350;13.828;2023-02-22T07:34:45;101009.31;;;-3.41;100.00
45525;BME280;31437;58.350;13.828;2023-02-22T07:37:11;101010.28;;;-3.34;100.00
45525;BME280;31437;58.350;13.828;2023-02-22T07:39:36;101009.50;;;-3.29;100.00
45525;BME280;31437;58.350;13.828;2023-02-22T07:42:02;101001.91;;;-3.23;100.00
45525;BME280;31437;58.350;13.828;2023-02-22T07:44:27;101001.13;;;-3.15;100.00
45525;BME280;31437;58.350;13.828;2023-02-22T07:46:52;100992.66;;;-3.11;100.00
45525;BME280;31437;58.350;13.828;2023-02-22T07:49:18;100987.56;;;-3.07;100.00
45525;BME280;31437;58.350;13.828;2023-02-22T07:51:43;100985.94;;;-3.00;100.00
45525;BME280;31437;58.350;13.828;2023-02-22T07:54:08;100981.78;;;-2.93;100.00
45525;BME280;31437;58.350;13.828;2023-02-22T07:56:34;100977.53;;;-2.90;100.00
45525;BME280;31437;58.350;13.828;2023-02-22T07:58:59;100969.03;;;-2.87;100.00
45525;BME280;31437;58.350;13.828;2023-02-22T08:01:25;100965.69;;;-2.80;100.00
45525;BME280;31437;58.350;13.828;2023-02-22T08:03:51;100967.50;;;-2.73;100.00
45525;BME280;31437;58.350;13.828;2023-02-22T08:06:16;100962.44;;;-2.65;100.00
45525;BME280;31437;58.350;13.828;2023-02-22T08:08:42;100962.50;;;-2.59;100.00
45525;BME280;31437;58.350;13.828;2023-02-22T08:11:07;100956.59;;;-2.54;100.00
45525;BME280;31437;58.350;13.828;2023-02-22T08:13:32;100949.75;;;-2.50;100.00
45525;BME280;31437;58.350;13.828;2023-02-22T08:15:58;100951.59;;;-2.40;100.00
45525;BME280;31437;58.350;13.828;2023-02-22T08:18:23;100944.03;;;-2.28;100.00
45525;BME280;31437;58.350;13.828;2023-02-22T08:20:50;100939.84;;;-2.15;100.00
45525;BME280;31437;58.350;13.828;2023-02-22T08:23:16;100934.81;;;-2.04;100.00
45525;BME280;31437;58.350;13.828;2023-02-22T08:25:42;100934.03;;;-1.95;100.00
45525;BME280;31437;58.350;13.828;2023-02-22T08:28:08;100927.25;;;-1.90;100.00
45525;BME280;31437;58.350;13.828;2023-02-22T08:30:35;100925.56;;;-1.84;100.00
45525;BME280;31437;58.350;13.828;2023-02-22T08:33:00;100921.41;;;-1.69;100.00
45525;BME280;31437;58.350;13.828;2023-02-22T08:35:27;100912.03;;;-1.60;100.00
45525;BME280;31437;58.350;13.828;2023-02-22T08:37:56;100905.28;;;-1.47;100.00
45525;BME280;31437;58.350;13.828;2023-02-22T08:40:26;100914.00;;;-1.23;100.00
45525;BME280;31437;58.350;13.828;2023-02-22T08:42:55;100905.53;;;-0.96;100.00
45525;BME280;31437;58.350;13.828;2023-02-22T08:45:20;100906.47;;;-0.71;100.00
45525;BME280;31437;58.350;13.828;2023-02-22T08:47:46;100903.09;;;-0.53;100.00
45525;BME280;31437;58.350;13.828;2023-02-22T08:50:16;100896.25;;;-0.39;100.00
45525;BME280;31437;58.350;13.828;2023-02-22T08:52:41;100887.69;;;-0.22;100.00
45525;BME280;31437;58.350;13.828;2023-02-22T08:55:06;100888.56;;;-0.13;100.00
45525;BME280;31437;58.350;13.828;2023-02-22T08:57:32;100886.00;;;-0.08;100.00
45525;BME280;31437;58.350;13.828;2023-02-22T08:59:57;100885.16;;;0.04;100.00
45525;BME280;31437;58.350;13.828;2023-02-22T09:02:22;100880.84;;;0.15;100.00
45525;BME280;31437;58.350;13.828;2023-02-22T09:04:48;100879.09;;;0.38;100.00
45525;BME280;31437;58.350;13.828;2023-02-22T09:07:14;100873.91;;;0.52;100.00
45525;BME280;31437;58.350;13.828;2023-02-22T09:09:43;100867.00;;;0.56;100.00
45525;BME280;31437;58.350;13.828;2023-02-22T09:12:08;100861.00;;;0.57;100.00
45525;BME280;31437;58.350;13.828;2023-02-22T09:14:33;100855.81;;;0.52;100.00
45525;BME280;31437;58.350;13.828;2023-02-22T09:16:59;100854.13;;;0.48;100.00
45525;BME280;31437;58.350;13.828;2023-02-22T09:19:24;100850.69;;;0.37;100.00
45525;BME280;31437;58.350;13.828;2023-02-22T09:21:53;100846.38;;;0.43;100.00
45525;BME280;31437;58.350;13.828;2023-02-22T09:24:18;100841.22;;;0.37;100.00
45525;BME280;31437;58.350;13.828;2023-02-22T09:26:47;100843.81;;;0.31;100.00
45525;BME280;31437;58.350;13.828;2023-02-22T09:29:17;100840.41;;;0.25;100.00
45525;BME280;31437;58.350;13.828;2023-02-22T09:31:46;100836.09;;;0.22;100.00
45525;BME280;31437;58.350;13.828;2023-02-22T09:34:11;100831.81;;;0.18;100.00
45525;BME280;31437;58.350;13.828;2023-02-22T09:36:40;100841.25;;;0.20;100.00
45525;BME280;31437;58.350;13.828;2023-02-22T09:39:06;100838.66;;;0.20;100.00
45525;BME280;31437;58.350;13.828;2023-02-22T09:41:35;100835.25;;;0.17;100.00
45525;BME280;31437;58.350;13.828;2023-02-22T09:46:45;100813.75;;;0.04;100.00
45525;BME280;31437;58.350;13.828;2023-02-22T09:51:58;100832.66;;;0.20;100.00
45525;BME280;31437;58.350;13.828;2023-02-22T09:54:27;100834.38;;;0.22;100.00
45525;BME280;31437;58.350;13.828;2023-02-22T09:56:57;100836.09;;;0.20;100.00
45525;BME280;31437;58.350;13.828;2023-02-22T09:59:26;100827.50;;;0.18;100.00
45525;BME280;31437;58.350;13.828;2023-02-22T10:01:54;100829.22;;;0.19;100.00
45525;BME280;31437;58.350;13.828;2023-02-22T10:04:23;100830.09;;;0.15;100.00
45525;BME280;31437;58.350;13.828;2023-02-22T10:09:20;100832.66;;;0.23;100.00
45525;BME280;31437;58.350;13.828;2023-02-22T10:11:48;100831.78;;;0.32;100.00
45525;BME280;31437;58.350;13.828;2023-02-22T10:22:00;100831.78;;;0.26;100.00
45525;BME280;31437;58.350;13.828;2023-02-22T10:27:07;100824.00;;;0.38;100.00
45525;BME280;31437;58.350;13.828;2023-02-22T10:29:39;100818.84;;;0.41;100.00
45525;BME280;31437;58.350;13.828;2023-02-22T10:32:07;100815.38;;;0.50;100.00
45525;BME280;31437;58.350;13.828;2023-02-22T10:34:46;100791.34;;;0.38;100.00
45525;BME280;31437;58.350;13.828;2023-02-22T10:37:32;100809.38;;;0.54;100.00
45525;BME280;31437;58.350;13.828;2023-02-22T10:40:17;100811.03;;;0.68;100.00
45525;BME280;31437;58.350;13.828;2023-02-22T10:42:47;100802.31;;;0.88;100.00
45525;BME280;31437;58.350;13.828;2023-02-22T10:45:23;100810.88;;;1.04;100.00
45525;BME280;31437;58.350;13.828;2023-02-22T10:47:50;100798.78;;;1.09;100.00
45525;BME280;31437;58.350;13.828;2023-02-22T10:50:19;100799.59;;;1.19;100.00
45525;BME280;31437;58.350;13.828;2023-02-22T10:52:44;100792.72;;;1.14;100.00
45525;BME280;31437;58.350;13.828;2023-02-22T10:55:11;100782.34;;;1.22;100.00
45525;BME280;31437;58.350;13.828;2023-02-22T10:57:37;100790.91;;;1.29;100.00
45525;BME280;31437;58.350;13.828;2023-02-22T11:02:50;100777.06;;;1.34;100.00
45525;BME280;31437;58.350;13.828;2023-02-22T11:10:41;100771.81;;;1.48;100.00
45525;BME280;31437;58.350;13.828;2023-02-22T11:13:18;100773.53;;;1.51;100.00
45525;BME280;31437;58.350;13.828;2023-02-22T11:15:43;100770.97;;;1.48;100.00
45525;BME280;31437;58.350;13.828;2023-02-22T11:18:20;100762.31;;;1.52;100.00
45525;BME280;31437;58.350;13.828;2023-02-22T11:20:46;100764.84;;;1.55;100.00
45525;BME280;31437;58.350;13.828;2023-02-22T11:23:12;100762.31;;;1.52;100.00
45525;BME280;31437;58.350;13.828;2023-02-22T11:25:39;100758.97;;;1.36;100.00
45525;BME280;31437;58.350;13.828;2023-02-22T11:28:11;100743.59;;;1.18;100.00
45525;BME280;31437;58.350;13.828;2023-02-22T11:30:39;100756.50;;;1.24;100.00
45525;BME280;31437;58.350;13.828;2023-02-22T11:35:47;100769.22;;;1.48;100.00
45525;BME280;31437;58.350;13.828;2023-02-22T11:38:19;100754.53;;;1.53;100.00
45525;BME280;31437;58.350;13.828;2023-02-22T11:40:45;100762.22;;;1.63;100.00
45525;BME280;31437;58.350;13.828;2023-02-22T11:43:17;100756.97;;;1.72;100.00
45525;BME280;31437;58.350;13.828;2023-02-22T11:45:59;100756.16;;;1.68;100.00
45525;BME280;31437;58.350;13.828;2023-02-22T11:48:27;100750.94;;;1.71;100.00
45525;BME280;31437;58.350;13.828;2023-02-22T11:55:54;100747.25;;;1.94;100.00
45525;BME280;31437;58.350;13.828;2023-02-22T11:58:42;100742.91;;;1.99;100.00
45525;BME280;31437;58.350;13.828;2023-02-22T12:09:16;100745.50;;;2.00;100.00
45525;BME280;31437;58.350;13.828;2023-02-22T12:12:07;100729.13;;;1.97;100.00
45525;BME280;31437;58.350;13.828;2023-02-22T12:15:12;100729.16;;;1.94;100.00
45525;BME280;31437;58.350;13.828;2023-02-22T12:20:22;100724.78;;;1.99;100.00
45525;BME280;31437;58.350;13.828;2023-02-22T12:25:32;100701.69;;;1.79;100.00
45525;BME280;31437;58.350;13.828;2023-02-22T12:28:02;100704.19;;;1.90;100.00
45525;BME280;31437;58.350;13.828;2023-02-22T12:30:36;100704.97;;;1.96;100.00
45525;BME280;31437;58.350;13.828;2023-02-22T12:33:10;100700.75;;;1.89;100.00
45525;BME280;31437;58.350;13.828;2023-02-22T12:35:41;100693.09;;;1.80;100.00
45525;BME280;31437;58.350;13.828;2023-02-22T12:38:14;100694.91;;;1.67;100.00
45525;BME280;31437;58.350;13.828;2023-02-22T12:43:46;100688.97;;;1.61;100.00
45525;BME280;31437;58.350;13.828;2023-02-22T12:46:19;100686.44;;;1.54;100.00
45525;BME280;31437;58.350;13.828;2023-02-22T12:54:03;100682.31;;;1.32;100.00
45525;BME280;31437;58.350;13.828;2023-02-22T12:56:36;100692.69;;;1.29;100.00
45525;BME280;31437;58.350;13.828;2023-02-22T12:59:11;100690.13;;;1.27;100.00
45525;BME280;31437;58.350;13.828;2023-02-22T13:01:43;100684.16;;;1.21;100.00
45525;BME280;31437;58.350;13.828;2023-02-22T13:04:09;100688.53;;;1.08;100.00
45525;BME280;31437;58.350;13.828;2023-02-22T13:09:17;100691.09;;;1.12;100.00
45525;BME280;31437;58.350;13.828;2023-02-22T13:11:52;100689.34;;;1.14;100.00
45525;BME280;31437;58.350;13.828;2023-02-22T13:14:35;100687.63;;;1.13;100.00
45525;BME280;31437;58.350;13.828;2023-02-22T13:17:27;100691.91;;;1.19;100.00
45525;BME280;31437;58.350;13.828;2023-02-22T13:19:56;100693.59;;;1.22;100.00
45525;BME280;31437;58.350;13.828;2023-02-22T13:22:42;100687.56;;;1.23;100.00
45525;BME280;31437;58.350;13.828;2023-02-22T13:30:35;100678.94;;;1.22;100.00
45525;BME280;31437;58.350;13.828;2023-02-22T13:33:15;100684.16;;;1.14;100.00
45525;BME280;31437;58.350;13.828;2023-02-22T13:38:29;100685.03;;;1.18;100.00
45525;BME280;31437;58.350;13.828;2023-02-22T13:51:29;100680.72;;;1.14;100.00
45525;BME280;31437;58.350;13.828;2023-02-22T13:53:59;100679.91;;;1.10;100.00
45525;BME280;31437;58.350;13.828;2023-02-22T13:56:26;100679.94;;;1.09;100.00
45525;BME280;31437;58.350;13.828;2023-02-22T13:58:56;100679.03;;;1.08;100.00
45525;BME280;31437;58.350;13.828;2023-02-22T14:01:38;100679.03;;;1.08;100.00
45525;BME280;31437;58.350;13.828;2023-02-22T14:04:21;100672.19;;;1.07;100.00
45525;BME280;31437;58.350;13.828;2023-02-22T14:06:48;100667.88;;;1.05;100.00
45525;BME280;31437;58.350;13.828;2023-02-22T14:09:14;100668.75;;;1.02;100.00
45525;BME280;31437;58.350;13.828;2023-02-22T14:11:43;100668.78;;;0.99;100.00
45525;BME280;31437;58.350;13.828;2023-02-22T14:14:09;100669.69;;;0.95;100.00
45525;BME280;31437;58.350;13.828;2023-02-22T14:16:34;100665.41;;;0.93;100.00
45525;BME280;31437;58.350;13.828;2023-02-22T14:19:10;100661.97;;;0.92;100.00
45525;BME280;31437;58.350;13.828;2023-02-22T14:24:25;100654.22;;;0.89;100.00
45525;BME280;31437;58.350;13.828;2023-02-22T14:26:55;100652.50;;;0.88;100.00
45525;BME280;31437;58.350;13.828;2023-02-22T14:29:22;100645.66;;;0.84;100.00
45525;BME280;31437;58.350;13.828;2023-02-22T14:34:17;100648.22;;;0.82;100.00